Hauptseite
METAR-TAF:

METAR-TAF

Flughäfen :

Aéroport Nice Côte d’Azur

Nizza, Frankreich

Breite: 43-39N, Länge: 007-12E, Höhe: 4 m

Beobachtung

Neuester Wetterbericht von vor 18 Minuten, um 19:00 UTC
Wind 5 kt aus Südwest
Temperatur 28°C
Luftfeuchtigkeit 66%
Luftdruck 1016 hPa
Sichtweite 10 km oder mehr
Leicht bewölkt in der Höhe von 10000 ft

METAR: LFMN 191900Z 22005KT 9999 FEW100 28/21 Q1016 NOSIG

Zeit: 21:18 (19:18 UTC)

Prognose

Neuester Wetterbericht von vor 5 Stunden und 18 Minuten, um 14:00 UTC
Gültige Prognose vom 19 um 15 UTC bis 20 um 21 UTC
Wind 8 kt aus Süd
Sichtweite 10 km oder mehr
keine Wolken unter 1500 m und keine Kumulonimbus oder Gewitterwolken
Übergehend zu
vom 19 um 19 UTC bis 19 um 21 UTC
Wind 10 kt aus Nord/Nordwest
Übergehend zu
vom 20 um 08 UTC bis 20 um 10 UTC
Wind 2 kt aus unterschiedlichen Richtungen

TAF: LFMN 191400Z 1915/2021 18008KT CAVOK BECMG 1919/1921 33010KT BECMG 2008/2010 VRB02KT

Wetterbeobachtungen und Prognosen von mehr als 4000 Flughäfen (METAR und TAF Bericht).

Die verfügbaren Stationen werden durch gelbe und rote Markierungen auf der Karte dargestellt.

Führen Sie die Maus auf sie, um den Namen der Station zu sehen.

Darauf klicken, um die Beobachtung von Wetterbeobachtungen und Prognosen zu sehen.

Um die Karte zu ändern : klicken Sie auf den grünen Tasten mit einem schwarzen Kreuz Zum Vergrößern, auf den grünen Button mit einem Gedankenstrich zu verkleinern, oder auf die grünen Pfeile für benachbarte Karten.


METAR-TAF: